Saline, Michigan
Current Conditions -  °F | °C
As of 6:53 PM on Tuesday 25 Nov 2014 (Local Time) from KARB Reporting Station
Overcast Overcast  
Wind Chill: 20°   Ceiling: 2400
Heat Index: 29°   Visibility: 10mi
Dew Point: 20°   Wind: 9mph
Humidity: 69%   Direction: 260°W
Pressure: 30.14"   Gusts: NA
Location:  42.17°N, 83.78°W
Report Text: KARB 252353Z AUTO 26008KT 10SM OVC024 M02/M07 A3014 RMK AO2 SLP216 T10171067 11006 21017 51018
Loading
Personal Weather Stations






























Interactive Weather Map New forecast layout! Learn more

10-Day Weather Forecast

Advertisements
Track Severe Weather on mobile